Time;durP1;ratioP1;P1;durP2;ratioP2;P2;SDS_P1;SDS_P2;PMS_P1;PMS_P2;Temp;Humidity;BMP_temperature;BMP_pressure;BME280_temperature;BME280_humidity;BME280_pressure;Samples;Min_cycle;Max_cycle;Signal;HPM_P1;HPM_P2
2024/03/31 00:00:20;;;;;;;;;;;;;;;20.47;41.63;100676.30;102793;1291;62445;-82
2024/03/31 00:02:46;;;;;;;;;;;;;;;20.48;41.65;100672.00;102783;1292;62200;-81
2024/03/31 00:05:12;;;;;;;;;;;;;;;20.48;41.62;100674.30;103014;1292;62581;-82
2024/03/31 00:07:37;;;;;;;;;;;;;;;20.47;41.59;100669.15;102708;1292;62753;-81
2024/03/31 00:10:03;;;;;;;;;;;;;;;20.47;41.63;100667.02;102736;1291;63442;-82
2024/03/31 00:12:29;;;;;;;;;;;;;;;20.47;41.77;100668.30;102972;1291;62220;-81
2024/03/31 00:14:54;;;;;;;;;;;;;;;20.47;41.65;100665.79;102762;1294;62746;-80
2024/03/31 00:17:20;;;;;;;;;;;;;;;20.48;41.66;100665.75;102813;1292;62200;-79
2024/03/31 00:19:47;;;;;;;;;;;;;;;20.47;41.68;100661.48;102591;1291;62307;-81
2024/03/31 00:22:13;;;;;;;;;;;;;;;20.47;41.68;100666.13;103025;1294;62193;-81
2024/03/31 00:24:38;;;;;;;;;;;;;;;20.47;41.61;100664.19;102768;1294;62194;-80
2024/03/31 00:27:04;;;;;;;;;;;;;;;20.47;41.78;100665.61;102714;1291;62230;-81
2024/03/31 00:29:29;;;;;;;;;;;;;;;20.47;41.66;100666.32;102734;1292;62651;-81
2024/03/31 00:31:55;;;;;;;;;;;;;;;20.46;41.66;100665.48;102838;1291;63237;-83
2024/03/31 00:34:23;;;;;;;;;;;;;;;20.47;41.69;100662.59;102967;1294;62201;-81
2024/03/31 00:36:49;;;;;;;;;;;;;;;20.47;41.62;100664.55;102740;1291;62144;-81
2024/03/31 00:39:15;;;;;;;;;;;;;;;20.47;41.69;100660.98;102763;1292;62313;-81
2024/03/31 00:41:41;;;;;;;;;;;;;;;20.46;41.67;100659.92;103063;1294;62144;-81
2024/03/31 00:44:06;;;;;;;;;;;;;;;20.46;41.60;100659.39;102767;1294;62203;-80
2024/03/31 00:46:32;;;;;;;;;;;;;;;20.46;41.63;100659.58;102762;1292;63462;-80
2024/03/31 00:48:57;;;;;;;;;;;;;;;20.46;41.75;100659.25;103050;1292;62153;-80
2024/03/31 00:51:23;;;;;;;;;;;;;;;20.46;41.79;100651.55;102654;1294;62174;-81
2024/03/31 00:53:49;;;;;;;;;;;;;;;20.46;41.67;100650.64;102735;1292;62273;-80
2024/03/31 00:56:14;;;;;;;;;;;;;;;20.46;41.63;100644.79;102774;1294;63455;-81
2024/03/31 00:58:40;;;;;;;;;;;;;;;20.46;41.68;100647.08;102964;1292;62131;-81
2024/03/31 01:01:06;;;;;;;;;;;;;;;20.46;41.63;100645.65;102716;1289;62170;-81
2024/03/31 01:03:32;;;;;;;;;;;;;;;20.46;41.77;100646.74;102821;1294;62274;-80
2024/03/31 01:05:58;;;;;;;;;;;;;;;20.46;41.72;100642.45;102731;1294;72408;-81
2024/03/31 01:08:26;;;;;;;;;;;;;;;20.46;41.77;100644.45;102776;1294;62286;-82
2024/03/31 01:10:52;;;;;;;;;;;;;;;20.45;41.77;100643.56;102740;1291;62633;-82
2024/03/31 01:13:18;;;;;;;;;;;;;;;20.45;41.65;100648.94;102790;1291;62235;-81
2024/03/31 01:15:44;;;;;;;;;;;;;;;20.45;41.75;100654.83;102697;1294;63238;-81
2024/03/31 01:18:10;;;;;;;;;;;;;;;20.46;41.72;100651.23;102720;1290;62228;-80
2024/03/31 01:20:36;;;;;;;;;;;;;;;20.46;41.57;100651.77;102970;1290;62143;-82
2024/03/31 01:23:02;;;;;;;;;;;;;;;20.45;41.62;100651.08;102989;1294;62173;-81
2024/03/31 01:25:27;;;;;;;;;;;;;;;20.46;41.65;100649.45;102723;1292;63398;-80
2024/03/31 01:27:53;;;;;;;;;;;;;;;20.45;41.77;100650.73;102976;1292;72462;-81
2024/03/31 01:30:18;;;;;;;;;;;;;;;20.45;41.78;100655.41;102681;1294;62180;-80
2024/03/31 01:32:45;;;;;;;;;;;;;;;20.45;41.60;100658.09;102946;1291;62377;-82
2024/03/31 01:35:10;;;;;;;;;;;;;;;20.45;41.79;100665.40;102980;1291;62207;-81
2024/03/31 01:37:36;;;;;;;;;;;;;;;20.45;41.55;100665.57;103020;1292;63348;-81
2024/03/31 01:40:02;;;;;;;;;;;;;;;20.45;41.63;100662.00;102927;1297;62358;-82
2024/03/31 01:42:27;;;;;;;;;;;;;;;20.45;41.75;100664.66;102609;1295;74236;-80
2024/03/31 01:44:53;;;;;;;;;;;;;;;20.45;41.79;100663.98;102780;1294;63400;-80
2024/03/31 01:47:18;;;;;;;;;;;;;;;20.45;41.73;100662.02;102992;1294;62669;-82
2024/03/31 01:49:44;;;;;;;;;;;;;;;20.45;41.61;100664.88;102716;1296;62206;-82
2024/03/31 01:52:09;;;;;;;;;;;;;;;20.44;41.62;100669.00;103071;1291;62218;-81
2024/03/31 01:54:37;;;;;;;;;;;;;;;20.44;41.64;100669.20;102674;1291;75009;-83
2024/03/31 01:57:03;;;;;;;;;;;;;;;20.44;41.70;100665.08;102756;1290;63552;-80
2024/03/31 01:59:29;;;;;;;;;;;;;;;20.44;41.50;100669.56;103003;1294;62194;-81
2024/03/31 02:01:54;;;;;;;;;;;;;;;20.44;41.56;100664.77;102988;1289;62188;-81
2024/03/31 02:04:20;;;;;;;;;;;;;;;20.43;41.58;100668.34;102985;1294;62210;-82
2024/03/31 02:06:46;;;;;;;;;;;;;;;20.43;41.72;100670.67;102764;1291;62244;-81
2024/03/31 02:09:12;;;;;;;;;;;;;;;20.43;41.68;100667.66;102983;1292;62106;-82
2024/03/31 02:11:37;;;;;;;;;;;;;;;20.43;41.65;100671.39;102763;1290;63373;-81
2024/03/31 02:14:03;;;;;;;;;;;;;;;20.43;41.61;100669.65;103011;1294;63106;-80
2024/03/31 02:16:29;;;;;;;;;;;;;;;20.43;41.67;100666.25;102683;1292;62251;-81
2024/03/31 02:18:55;;;;;;;;;;;;;;;20.43;41.62;100664.98;102784;1294;62307;-81
2024/03/31 02:21:21;;;;;;;;;;;;;;;20.43;41.58;100670.36;102679;1294;62374;-81
2024/03/31 02:23:46;;;;;;;;;;;;;;;20.43;41.68;100666.95;102192;1295;734198;-82
2024/03/31 02:26:12;;;;;;;;;;;;;;;20.42;41.55;100669.31;102862;1292;62216;-82
2024/03/31 02:28:37;;;;;;;;;;;;;;;20.42;41.67;100670.02;102616;1297;75331;-81
2024/03/31 02:31:03;;;;;;;;;;;;;;;20.43;41.66;100673.58;102739;1294;62237;-79
2024/03/31 02:33:29;;;;;;;;;;;;;;;20.42;41.65;100674.50;102743;1291;62715;-80
2024/03/31 02:35:54;;;;;;;;;;;;;;;20.43;41.67;100677.88;102710;1294;63549;-80
2024/03/31 02:38:20;;;;;;;;;;;;;;;20.42;41.59;100681.10;103073;1292;63342;-80
2024/03/31 02:40:46;;;;;;;;;;;;;;;20.43;41.58;100682.89;102709;1294;75150;-81
2024/03/31 02:43:12;;;;;;;;;;;;;;;20.42;41.59;100685.05;102985;1292;63369;-82
2024/03/31 02:45:37;;;;;;;;;;;;;;;20.42;41.67;100687.90;102806;1294;62274;-81
2024/03/31 02:48:03;;;;;;;;;;;;;;;20.42;41.65;100689.88;102997;1292;62108;-83
2024/03/31 02:50:30;;;;;;;;;;;;;;;20.42;41.54;100690.42;102760;1294;63556;-81
2024/03/31 02:52:56;;;;;;;;;;;;;;;20.42;41.49;100690.80;102996;1291;75207;-81
2024/03/31 02:55:22;;;;;;;;;;;;;;;20.42;41.58;100692.77;103238;1291;62207;-81
2024/03/31 02:57:47;;;;;;;;;;;;;;;20.42;41.60;100690.10;102689;1294;62206;-80
2024/03/31 03:00:16;;;;;;;;;;;;;;;20.42;41.67;100692.41;103097;1290;62178;-80
2024/03/31 03:02:41;;;;;;;;;;;;;;;20.41;41.60;100688.14;102720;1292;62205;-81
2024/03/31 03:05:07;;;;;;;;;;;;;;;20.42;41.62;100690.45;102716;1292;62253;-80
2024/03/31 03:07:33;;;;;;;;;;;;;;;20.41;41.66;100689.23;102740;1290;62258;-81
2024/03/31 03:09:59;;;;;;;;;;;;;;;20.41;41.57;100691.39;102766;1290;63331;-80
2024/03/31 03:12:24;;;;;;;;;;;;;;;20.41;41.62;100687.44;102747;1297;62210;-83
2024/03/31 03:14:53;;;;;;;;;;;;;;;20.41;41.57;100684.23;102972;1290;74275;-80
2024/03/31 03:17:18;;;;;;;;;;;;;;;20.41;41.47;100683.89;103051;1291;62264;-81
2024/03/31 03:19:44;;;;;;;;;;;;;;;20.41;41.62;100686.23;102767;1292;62265;-81
2024/03/31 03:22:10;;;;;;;;;;;;;;;20.41;41.65;100687.48;102732;1294;62176;-82
2024/03/31 03:24:36;;;;;;;;;;;;;;;20.41;41.50;100689.45;102983;1292;62197;-82
2024/03/31 03:27:02;;;;;;;;;;;;;;;20.41;41.61;100695.88;102752;1294;62239;-82
2024/03/31 03:29:28;;;;;;;;;;;;;;;20.40;41.49;100695.02;102739;1289;62117;-80
2024/03/31 03:31:53;;;;;;;;;;;;;;;20.40;41.56;100694.48;102772;1294;62175;-81
2024/03/31 03:34:19;;;;;;;;;;;;;;;20.40;41.52;100701.63;102957;1294;72590;-81
2024/03/31 03:36:45;;;;;;;;;;;;;;;20.40;41.60;100703.79;102668;1290;62258;-82
2024/03/31 03:39:10;;;;;;;;;;;;;;;20.40;41.71;100707.53;102925;1290;62277;-80
2024/03/31 03:41:36;;;;;;;;;;;;;;;20.40;41.71;100709.15;102628;1291;62249;-83
2024/03/31 03:44:01;;;;;;;;;;;;;;;20.40;41.64;100711.82;102986;1293;62606;-81
2024/03/31 03:46:27;;;;;;;;;;;;;;;20.39;41.62;100716.18;102816;1292;71417;-81
2024/03/31 03:48:53;;;;;;;;;;;;;;;20.40;41.52;100717.23;102700;1292;62294;-80
2024/03/31 03:51:18;;;;;;;;;;;;;;;20.40;41.54;100724.52;102689;1291;62180;-81
2024/03/31 03:53:44;;;;;;;;;;;;;;;20.39;41.69;100722.23;102665;1294;62162;-81
2024/03/31 03:56:10;;;;;;;;;;;;;;;20.40;41.61;100725.23;102682;1294;63420;-82
2024/03/31 03:58:35;;;;;;;;;;;;;;;20.39;41.51;100726.35;102794;1294;63291;-81
2024/03/31 04:01:01;;;;;;;;;;;;;;;20.39;41.69;100732.96;102771;1294;75154;-82
2024/03/31 04:03:27;;;;;;;;;;;;;;;20.39;41.62;100736.38;102735;1294;62252;-81
2024/03/31 04:05:53;;;;;;;;;;;;;;;20.39;41.59;100743.73;102823;1291;62280;-80
2024/03/31 04:08:19;;;;;;;;;;;;;;;20.39;41.54;100744.98;103035;1294;62199;-81
2024/03/31 04:10:44;;;;;;;;;;;;;;;20.39;41.69;100744.43;102737;1292;62183;-82
2024/03/31 04:13:10;;;;;;;;;;;;;;;20.39;41.63;100739.26;103172;1294;63494;-81
2024/03/31 04:15:35;;;;;;;;;;;;;;;20.40;41.60;100743.70;102616;1297;62767;-82
2024/03/31 04:18:02;;;;;;;;;;;;;;;20.39;41.51;100738.95;102731;1292;63354;-80
2024/03/31 04:20:27;;;;;;;;;;;;;;;20.39;41.56;100747.70;102909;1294;62949;-80
2024/03/31 04:22:53;;;;;;;;;;;;;;;20.39;41.48;100748.92;102702;1292;63286;-80
2024/03/31 04:25:19;;;;;;;;;;;;;;;20.39;41.45;100754.99;102981;1291;63257;-81
2024/03/31 04:27:45;;;;;;;;;;;;;;;20.39;41.65;100754.32;102982;1294;62235;-81
2024/03/31 04:30:10;;;;;;;;;;;;;;;20.39;41.61;100753.42;102724;1292;62152;-81
2024/03/31 04:32:36;;;;;;;;;;;;;;;20.38;41.54;100755.23;102943;1294;62267;-82
2024/03/31 04:35:01;;;;;;;;;;;;;;;20.39;41.60;100750.57;103001;1295;62858;-80
2024/03/31 04:37:27;;;;;;;;;;;;;;;20.38;41.61;100754.16;102956;1294;62204;-81
2024/03/31 04:39:53;;;;;;;;;;;;;;;20.38;41.74;100752.19;102733;1289;62283;-83
2024/03/31 04:42:18;;;;;;;;;;;;;;;20.38;41.53;100751.45;102725;1292;62233;-80
2024/03/31 04:44:44;;;;;;;;;;;;;;;20.38;41.63;100748.29;102709;1291;63329;-81
2024/03/31 04:47:10;;;;;;;;;;;;;;;20.38;41.57;100749.55;102688;1294;62243;-81
2024/03/31 04:49:35;;;;;;;;;;;;;;;20.37;41.57;100749.56;102765;1295;62561;-80
2024/03/31 04:52:01;;;;;;;;;;;;;;;20.37;41.52;100748.83;102763;1305;62143;-81
2024/03/31 04:54:26;;;;;;;;;;;;;;;20.37;41.59;100744.91;102731;1292;62211;-83
2024/03/31 04:56:52;;;;;;;;;;;;;;;20.37;41.52;100748.33;102773;1294;63382;-80
2024/03/31 04:59:18;;;;;;;;;;;;;;;20.37;41.46;100749.96;102635;1295;62277;-80
2024/03/31 05:01:43;;;;;;;;;;;;;;;20.37;41.63;100750.66;102999;1292;62416;-81
2024/03/31 05:04:10;;;;;;;;;;;;;;;20.37;41.50;100753.37;102962;1291;62198;-81
2024/03/31 05:06:35;;;;;;;;;;;;;;;20.37;41.51;100749.98;102700;1295;62229;-84
2024/03/31 05:09:03;;;;;;;;;;;;;;;20.37;41.61;100746.20;102970;1294;62228;-81
2024/03/31 05:11:29;;;;;;;;;;;;;;;20.37;41.57;100745.83;102696;1291;63275;-81
2024/03/31 05:13:56;;;;;;;;;;;;;;;20.36;41.52;100746.79;102798;1294;62176;-80
2024/03/31 05:16:21;;;;;;;;;;;;;;;20.36;41.48;100753.39;102924;1293;63479;-81
2024/03/31 05:18:50;;;;;;;;;;;;;;;20.36;41.51;100759.29;102735;1294;63105;-80
2024/03/31 05:21:16;;;;;;;;;;;;;;;20.36;41.52;100760.39;102763;1295;75394;-81
2024/03/31 05:23:45;;;;;;;;;;;;;;;20.36;41.44;100758.39;102724;1295;62228;-83
2024/03/31 05:26:11;;;;;;;;;;;;;;;20.37;41.54;100757.13;103019;1295;62200;-80
2024/03/31 05:28:38;;;;;;;;;;;;;;;20.37;41.61;100755.70;102966;1294;72342;-81
2024/03/31 05:31:04;;;;;;;;;;;;;;;20.36;41.41;100758.95;102758;1290;62316;-79
2024/03/31 05:33:30;;;;;;;;;;;;;;;20.37;41.44;100761.94;102802;1294;63302;-81
2024/03/31 05:35:56;;;;;;;;;;;;;;;20.37;41.52;100763.02;102735;1295;62199;-80
2024/03/31 05:38:22;;;;;;;;;;;;;;;20.36;41.50;100764.81;102924;1294;62209;-81
2024/03/31 05:40:47;;;;;;;;;;;;;;;20.37;41.43;100763.52;102712;1295;62212;-81
2024/03/31 05:43:13;;;;;;;;;;;;;;;20.37;41.55;100767.27;102774;1294;62631;-81
2024/03/31 05:45:39;;;;;;;;;;;;;;;20.37;41.52;100766.02;102731;1295;62430;-81
2024/03/31 05:48:05;;;;;;;;;;;;;;;20.37;41.43;100767.27;103221;1294;62154;-81
2024/03/31 05:50:31;;;;;;;;;;;;;;;20.38;41.39;100765.61;102719;1294;62229;-83
2024/03/31 05:52:56;;;;;;;;;;;;;;;20.39;41.36;100766.46;102976;1295;63361;-80
2024/03/31 05:55:22;;;;;;;;;;;;;;;20.38;41.50;100765.06;102763;1289;62229;-81
2024/03/31 05:57:48;;;;;;;;;;;;;;;20.39;41.59;100772.51;102754;1294;62707;-81
2024/03/31 06:00:14;;;;;;;;;;;;;;;20.39;41.40;100773.75;102984;1295;62220;-83
2024/03/31 06:02:39;;;;;;;;;;;;;;;20.40;41.38;100776.02;102723;1295;72502;-80
2024/03/31 06:05:06;;;;;;;;;;;;;;;20.40;41.46;100780.64;102975;1291;62425;-81
2024/03/31 06:07:31;;;;;;;;;;;;;;;20.41;41.36;100781.48;102971;1295;62209;-81
2024/03/31 06:09:58;;;;;;;;;;;;;;;20.42;41.46;100780.89;102709;1290;62210;-81
2024/03/31 06:12:24;;;;;;;;;;;;;;;20.42;41.56;100787.84;102999;1294;63321;-81
2024/03/31 06:14:50;;;;;;;;;;;;;;;20.43;41.50;100792.65;102740;1295;62082;-82
2024/03/31 06:17:16;;;;;;;;;;;;;;;20.43;41.53;100795.25;102754;1295;62283;-81
2024/03/31 06:19:42;;;;;;;;;;;;;;;20.44;41.59;100799.34;102925;1289;62219;-81
2024/03/31 06:22:07;;;;;;;;;;;;;;;20.45;41.54;100800.20;102762;1295;62214;-81
2024/03/31 06:24:33;;;;;;;;;;;;;;;20.45;41.48;100802.67;102719;1297;72297;-81
2024/03/31 06:26:58;;;;;;;;;;;;;;;20.46;41.62;100803.90;103081;1295;62223;-81
2024/03/31 06:29:24;;;;;;;;;;;;;;;20.46;41.68;100810.14;102690;1290;62192;-81
2024/03/31 06:31:50;;;;;;;;;;;;;;;20.47;41.50;100815.61;102936;1289;62223;-81
2024/03/31 06:34:15;;;;;;;;;;;;;;;20.47;41.54;100810.95;103163;1295;62310;-80
2024/03/31 06:36:41;;;;;;;;;;;;;;;20.47;41.46;100813.26;102711;1292;73485;-82
2024/03/31 06:39:07;;;;;;;;;;;;;;;20.48;41.61;100816.06;102695;1290;62545;-81
2024/03/31 06:41:32;;;;;;;;;;;;;;;20.49;41.49;100821.58;103082;1290;62211;-80
2024/03/31 06:43:58;;;;;;;;;;;;;;;20.49;41.41;100822.95;102945;1290;62143;-82
2024/03/31 06:46:23;;;;;;;;;;;;;;;20.49;41.53;100820.63;102728;1294;62198;-82
2024/03/31 06:48:49;;;;;;;;;;;;;;;20.50;41.54;100825.05;102744;1294;63408;-81
2024/03/31 06:51:15;;;;;;;;;;;;;;;20.50;41.53;100826.44;102799;1295;62406;-80
2024/03/31 06:53:40;;;;;;;;;;;;;;;20.51;41.66;100822.48;102955;1295;62220;-82
2024/03/31 06:56:06;;;;;;;;;;;;;;;20.51;41.60;100818.52;102657;1295;62209;-81
2024/03/31 06:58:32;;;;;;;;;;;;;;;20.52;41.78;100820.27;102823;1294;63320;-81
2024/03/31 07:01:00;;;;;;;;;;;;;;;20.52;41.71;100816.33;102723;1291;62857;-80
2024/03/31 07:03:26;;;;;;;;;;;;;;;20.53;41.83;100817.16;102939;1290;75267;-81
2024/03/31 07:05:52;;;;;;;;;;;;;;;20.53;41.92;100821.06;102894;1294;63426;-79
2024/03/31 07:08:17;;;;;;;;;;;;;;;20.53;41.91;100818.15;102950;1293;62113;-80
2024/03/31 07:10:43;;;;;;;;;;;;;;;20.55;41.84;100821.13;102677;1291;62258;-81
2024/03/31 07:13:08;;;;;;;;;;;;;;;20.55;41.82;100824.14;102683;1292;62202;-80
2024/03/31 07:15:34;;;;;;;;;;;;;;;20.56;41.87;100826.25;102736;1294;62137;-82
2024/03/31 07:18:04;;;;;;;;;;;;;;;20.56;41.93;100823.56;102739;1290;62264;-78
2024/03/31 07:20:30;;;;;;;;;;;;;;;20.56;42.03;100827.80;102618;1297;62259;-81
2024/03/31 07:22:55;;;;;;;;;;;;;;;20.57;42.02;100824.92;102914;1292;62820;-80
2024/03/31 07:25:21;;;;;;;;;;;;;;;20.57;42.06;100828.98;102873;1289;62312;-81
2024/03/31 07:27:46;;;;;;;;;;;;;;;20.58;42.01;100832.36;102956;1295;62210;-80
2024/03/31 07:30:12;;;;;;;;;;;;;;;20.58;42.02;100833.59;102792;1294;63629;-80
2024/03/31 07:32:38;;;;;;;;;;;;;;;20.59;42.07;100834.63;102654;1297;62216;-80
2024/03/31 07:35:03;;;;;;;;;;;;;;;20.59;42.08;100835.67;102772;1289;62228;-82
2024/03/31 07:37:29;;;;;;;;;;;;;;;20.59;42.13;100832.98;102634;1295;62385;-81
2024/03/31 07:39:54;;;;;;;;;;;;;;;20.60;42.13;100829.35;102742;1295;63474;-82
2024/03/31 07:42:20;;;;;;;;;;;;;;;20.60;42.10;100827.71;102973;1294;62197;-81
2024/03/31 07:44:48;;;;;;;;;;;;;;;20.60;42.26;100825.02;102922;1292;62193;-81
2024/03/31 07:47:13;;;;;;;;;;;;;;;20.61;42.11;100830.37;102789;1290;72484;-80
2024/03/31 07:49:39;;;;;;;;;;;;;;;20.62;42.26;100826.92;102794;1292;62295;-81
2024/03/31 07:52:05;;;;;;;;;;;;;;;20.62;42.14;100824.96;102631;1292;62236;-81
2024/03/31 07:54:30;;;;;;;;;;;;;;;20.62;42.14;100823.33;102712;1290;62172;-82
2024/03/31 07:56:56;;;;;;;;;;;;;;;20.62;42.11;100823.85;102742;1297;62157;-81
2024/03/31 07:59:21;;;;;;;;;;;;;;;20.63;42.22;100822.23;102908;1293;72585;-80
2024/03/31 08:01:47;;;;;;;;;;;;;;;20.62;42.19;100817.05;102705;1291;63459;-81
2024/03/31 08:04:13;;;;;;;;;;;;;;;20.63;42.28;100812.75;102923;1292;63388;-81
2024/03/31 08:06:38;;;;;;;;;;;;;;;20.63;42.40;100805.03;102948;1290;62221;-80
2024/03/31 08:09:04;;;;;;;;;;;;;;;20.63;42.22;100797.52;103152;1290;62299;-80
2024/03/31 08:11:30;;;;;;;;;;;;;;;20.63;42.28;100797.48;102998;1292;62298;-81
2024/03/31 08:13:55;;;;;;;;;;;;;;;20.63;42.20;100797.84;102725;1294;63248;-82
2024/03/31 08:16:21;;;;;;;;;;;;;;;20.63;42.26;100811.80;102948;1294;63465;-80
2024/03/31 08:18:46;;;;;;;;;;;;;;;20.64;42.38;100818.91;102948;1294;63384;-81
2024/03/31 08:21:12;;;;;;;;;;;;;;;20.64;42.23;100813.35;102910;1292;63341;-82
2024/03/31 08:23:38;;;;;;;;;;;;;;;20.64;42.29;100808.53;102756;1294;62559;-80
2024/03/31 08:26:04;;;;;;;;;;;;;;;20.64;42.19;100810.88;102689;1294;75161;-81
2024/03/31 08:28:30;;;;;;;;;;;;;;;20.64;42.33;100806.77;102917;1305;63407;-81
2024/03/31 08:30:55;;;;;;;;;;;;;;;20.64;42.36;100805.84;102794;1291;62206;-82
2024/03/31 08:33:21;;;;;;;;;;;;;;;20.64;42.43;100803.33;102904;1294;62200;-81
2024/03/31 08:35:54;;;;;;;;;;;;;;;20.65;42.30;100802.04;102746;1294;62210;-83
2024/03/31 08:38:19;;;;;;;;;;;;;;;20.64;42.27;100800.10;102932;1292;62124;-81
2024/03/31 08:40:46;;;;;;;;;;;;;;;20.64;42.32;100793.84;102708;1292;62293;-82
2024/03/31 08:43:12;;;;;;;;;;;;;;;20.65;42.33;100791.50;102723;1291;62295;-81
2024/03/31 08:45:37;;;;;;;;;;;;;;;20.64;42.31;100791.69;102956;1294;62577;-81
2024/03/31 08:48:03;;;;;;;;;;;;;;;20.65;42.25;100792.73;102922;1294;62278;-81
2024/03/31 08:50:29;;;;;;;;;;;;;;;20.65;42.24;100790.21;102659;1292;62640;-81
2024/03/31 08:52:55;;;;;;;;;;;;;;;20.65;42.27;100786.66;103152;1292;63397;-81
2024/03/31 08:55:20;;;;;;;;;;;;;;;20.65;42.32;100784.50;102642;1297;72434;-80
2024/03/31 08:57:46;;;;;;;;;;;;;;;20.65;42.27;100783.24;102759;1294;63865;-81
2024/03/31 09:00:12;;;;;;;;;;;;;;;20.65;42.32;100782.17;102745;1294;62254;-80
2024/03/31 09:02:40;;;;;;;;;;;;;;;20.65;42.21;100783.79;102688;1292;62201;-81
2024/03/31 09:05:07;;;;;;;;;;;;;;;20.65;42.41;100779.66;102714;1294;62197;-81
2024/03/31 09:07:35;;;;;;;;;;;;;;;20.65;42.29;100778.76;102739;1292;63299;-81
2024/03/31 09:10:05;;;;;;;;;;;;;;;20.66;42.31;100774.62;102915;1291;62207;-81
2024/03/31 09:12:31;;;;;;;;;;;;;;;20.66;42.33;100773.89;102769;1294;62281;-81
2024/03/31 09:14:57;;;;;;;;;;;;;;;20.66;42.25;100770.27;102719;1294;62533;-82
2024/03/31 09:17:22;;;;;;;;;;;;;;;20.66;42.25;100767.63;102792;1296;62190;-81
2024/03/31 09:19:48;;;;;;;;;;;;;;;20.66;42.43;100767.27;102713;1292;62214;-81
2024/03/31 09:22:14;;;;;;;;;;;;;;;20.67;42.28;100767.75;102974;1294;62191;-81
2024/03/31 09:24:41;;;;;;;;;;;;;;;20.67;42.20;100763.98;102776;1292;62204;-80
2024/03/31 09:27:06;;;;;;;;;;;;;;;20.67;42.27;100761.48;102717;1294;73385;-81
2024/03/31 09:29:32;;;;;;;;;;;;;;;20.67;42.35;100756.11;102956;1290;63372;-80
2024/03/31 09:32:04;;;;;;;;;;;;;;;20.67;42.23;100759.52;102725;1291;62226;-82
2024/03/31 09:34:30;;;;;;;;;;;;;;;20.67;42.23;100757.34;102574;1295;62186;-81
2024/03/31 09:36:56;;;;;;;;;;;;;;;20.67;42.38;100751.63;102458;1295;62269;-80
2024/03/31 09:39:21;;;;;;;;;;;;;;;20.67;42.22;100753.23;102580;1296;62354;-80
2024/03/31 09:41:49;;;;;;;;;;;;;;;20.67;42.23;100751.61;102575;1294;63384;-81
2024/03/31 09:44:16;;;;;;;;;;;;;;;20.67;42.43;100750.71;102554;1294;62345;-81
2024/03/31 09:46:41;;;;;;;;;;;;;;;20.68;42.40;100752.13;102586;1295;62233;-81
2024/03/31 09:49:07;;;;;;;;;;;;;;;20.67;42.24;100750.71;102575;1297;62371;-81
2024/03/31 09:51:33;;;;;;;;;;;;;;;20.67;42.26;100748.57;102558;1295;62271;-82
2024/03/31 09:54:00;;;;;;;;;;;;;;;20.67;42.25;100750.52;102739;1294;62266;-81
2024/03/31 09:56:32;;;;;;;;;;;;;;;20.67;42.27;100749.98;102552;1297;63692;-80
2024/03/31 09:58:57;;;;;;;;;;;;;;;20.68;42.24;100749.23;102502;1298;75106;-83
2024/03/31 10:01:23;;;;;;;;;;;;;;;20.68;42.24;100742.08;102646;1295;62309;-80
2024/03/31 10:03:49;;;;;;;;;;;;;;;20.69;42.20;100738.48;102630;1294;62303;-81
2024/03/31 10:06:15;;;;;;;;;;;;;;;20.69;42.15;100738.30;102649;1294;62248;-82
2024/03/31 10:08:40;;;;;;;;;;;;;;;20.69;42.19;100741.17;102938;1291;62337;-82
2024/03/31 10:11:06;;;;;;;;;;;;;;;20.69;42.28;100739.73;102960;1291;63330;-82
2024/03/31 10:13:32;;;;;;;;;;;;;;;20.69;42.34;100739.17;102745;1291;62194;-81
2024/03/31 10:15:57;;;;;;;;;;;;;;;20.69;42.30;100742.39;102716;1291;63257;-81
2024/03/31 10:18:23;;;;;;;;;;;;;;;20.69;42.26;100745.60;102674;1292;62393;-80
2024/03/31 10:20:50;;;;;;;;;;;;;;;20.69;42.17;100746.66;102789;1291;62180;-80
2024/03/31 10:23:17;;;;;;;;;;;;;;;20.70;42.23;100744.33;102770;1292;63745;-81
2024/03/31 10:25:42;;;;;;;;;;;;;;;20.70;42.15;100742.19;102757;1294;62802;-80
2024/03/31 10:28:08;;;;;;;;;;;;;;;20.70;42.28;100743.60;103034;1292;63303;-81
2024/03/31 10:30:34;;;;;;;;;;;;;;;20.70;42.17;100745.38;102798;1289;62154;-82
2024/03/31 10:33:00;;;;;;;;;;;;;;;20.70;42.17;100746.96;102781;1290;75244;-80
2024/03/31 10:35:25;;;;;;;;;;;;;;;20.71;42.19;100742.11;102724;1294;63352;-82
2024/03/31 10:37:51;;;;;;;;;;;;;;;20.70;42.36;100742.51;102725;1289;62146;-81
2024/03/31 10:40:19;;;;;;;;;;;;;;;20.70;42.17;100737.67;102717;1294;62261;-81
2024/03/31 10:42:44;;;;;;;;;;;;;;;20.71;42.15;100740.13;102990;1291;63481;-81
2024/03/31 10:45:12;;;;;;;;;;;;;;;20.70;42.18;100743.72;102955;1294;63451;-81
2024/03/31 10:47:38;;;;;;;;;;;;;;;20.71;42.05;100740.49;102981;1291;63287;-81
2024/03/31 10:50:04;;;;;;;;;;;;;;;20.71;42.18;100736.33;102815;1291;62208;-82
2024/03/31 10:52:32;;;;;;;;;;;;;;;20.71;42.23;100735.63;102701;1292;62197;-80
2024/03/31 10:54:58;;;;;;;;;;;;;;;20.71;42.26;100727.41;102714;1294;62223;-82
2024/03/31 10:57:32;;;;;;;;;;;;;;;20.71;42.20;100724.17;103011;1289;62095;-80
2024/03/31 10:59:58;;;;;;;;;;;;;;;20.71;42.27;100725.44;102924;1290;72478;-81
2024/03/31 11:02:24;;;;;;;;;;;;;;;20.71;42.21;100722.91;102700;1292;63369;-82
2024/03/31 11:05:09;;;;;;;;;;;;;;;20.71;42.07;100725.42;102678;1296;63109;-80
2024/03/31 11:07:35;;;;;;;;;;;;;;;20.72;42.13;100728.45;102679;1291;62205;-80
2024/03/31 11:10:01;;;;;;;;;;;;;;;20.72;42.24;100724.14;102962;1296;62236;-81
2024/03/31 11:12:26;;;;;;;;;;;;;;;20.72;42.24;100725.91;103450;1294;63398;-81
2024/03/31 11:14:53;;;;;;;;;;;;;;;20.72;42.22;100723.73;103586;1289;62210;-81
2024/03/31 11:17:18;;;;;;;;;;;;;;;20.73;42.20;100721.05;103385;1289;63079;-81
2024/03/31 11:19:44;;;;;;;;;;;;;;;20.74;42.20;100719.71;102897;1291;62216;-80
2024/03/31 11:22:09;;;;;;;;;;;;;;;20.74;42.21;100718.27;102906;1294;60124;-80
2024/03/31 11:24:37;;;;;;;;;;;;;;;20.75;42.19;100714.82;102977;1294;75316;-82
2024/03/31 11:27:02;;;;;;;;;;;;;;;20.74;42.03;100710.36;102740;1291;62217;-81
2024/03/31 11:29:28;;;;;;;;;;;;;;;20.75;42.10;100710.84;102924;1294;62234;-80
2024/03/31 11:31:54;;;;;;;;;;;;;;;20.75;42.03;100702.11;103410;1291;62136;-80
2024/03/31 11:34:19;;;;;;;;;;;;;;;20.75;42.12;100696.56;103011;1290;62905;-80
2024/03/31 11:36:45;;;;;;;;;;;;;;;20.75;42.04;100690.80;103231;1289;62682;-80
2024/03/31 11:39:14;;;;;;;;;;;;;;;20.75;42.13;100679.86;102835;1291;62115;-80
2024/03/31 11:41:40;;;;;;;;;;;;;;;20.76;42.19;100678.80;102923;1289;62083;-79
2024/03/31 11:44:06;;;;;;;;;;;;;;;20.76;42.19;100675.73;102852;1290;62172;-81
2024/03/31 11:46:31;;;;;;;;;;;;;;;20.76;42.25;100670.36;102747;1294;62546;-80
2024/03/31 11:48:57;;;;;;;;;;;;;;;20.76;42.07;100669.64;103016;1290;62258;-80
2024/03/31 11:51:24;;;;;;;;;;;;;;;20.76;42.07;100666.58;103180;1292;62380;-82
2024/03/31 11:53:50;;;;;;;;;;;;;;;20.76;42.09;100661.93;102726;1292;62206;-81
2024/03/31 11:56:15;;;;;;;;;;;;;;;20.77;42.21;100660.83;102946;1291;63375;-81
2024/03/31 11:58:41;;;;;;;;;;;;;;;20.76;42.10;100659.42;102965;1294;62193;-82
2024/03/31 12:01:10;;;;;;;;;;;;;;;20.77;42.14;100659.39;103002;1289;62118;-81
2024/03/31 12:03:37;;;;;;;;;;;;;;;20.77;42.19;100664.05;102754;1289;62133;-81
2024/03/31 12:06:02;;;;;;;;;;;;;;;20.77;42.14;100661.20;103295;1291;62207;-81
2024/03/31 12:08:28;;;;;;;;;;;;;;;20.77;42.12;100661.90;102699;1289;62431;-82
2024/03/31 12:10:56;;;;;;;;;;;;;;;20.77;42.03;100670.11;102918;1289;62293;-81
2024/03/31 12:13:22;;;;;;;;;;;;;;;20.77;42.24;100667.79;102925;1291;62197;-82
2024/03/31 12:15:47;;;;;;;;;;;;;;;20.77;42.19;100664.59;102754;1292;63490;-81
2024/03/31 12:18:13;;;;;;;;;;;;;;;20.78;42.10;100663.83;102728;1292;63260;-81